Time;durP1;ratioP1;P1;durP2;ratioP2;P2;SDS_P1;SDS_P2;PMS_P1;PMS_P2;Temp;Humidity;BMP_temperature;BMP_pressure;BME280_temperature;BME280_humidity;BME280_pressure;Samples;Min_cycle;Max_cycle;Signal;HPM_P1;HPM_P2
2022/04/18 00:01:38;;;;;;;;;;;;;;;;;;5014620;28;19909;-28
2022/04/18 00:04:04;;;;;;;;;;;;;;;;;;5014987;28;19909;-28
2022/04/18 00:06:35;;;;;;;;;;;;;;;;;;5015146;28;19998;-32
2022/04/18 00:09:01;;;;;;;;;;;;;;;;;;5015114;28;19978;-31
2022/04/18 00:11:27;;;;;;;;;;;;;;;;;;4997673;28;20333;-32
2022/04/18 00:13:53;;;;;;;;;;;;;;;;;;5014589;28;19910;-32
2022/04/18 00:16:19;;;;;;;;;;;;;;;;;;5016245;28;20367;-28
2022/04/18 00:18:45;;;;;;;;;;;;;;;;;;5018367;28;19928;-30
2022/04/18 00:21:11;;;;;;;;;;;;;;;;;;5018594;28;19917;-29
2022/04/18 00:23:37;;;;;;;;;;;;;;;;;;5018130;28;19987;-28
2022/04/18 00:26:03;;;;;;;;;;;;;;;;;;5018253;28;19914;-30
2022/04/18 00:28:29;;;;;;;;;;;;;;;;;;5018490;28;20008;-29
2022/04/18 00:30:55;;;;;;;;;;;;;;;;;;5018141;28;19913;-32
2022/04/18 00:33:22;;;;;;;;;;;;;;;;;;5018422;28;19924;-32
2022/04/18 00:35:48;;;;;;;;;;;;;;;;;;5018076;28;19914;-31
2022/04/18 00:38:14;;;;;;;;;;;;;;;;;;5018039;28;20365;-30
2022/04/18 00:40:40;;;;;;;;;;;;;;;;;;5018276;28;19971;-32
2022/04/18 00:43:06;;;;;;;;;;;;;;;;;;5017965;28;20039;-29
2022/04/18 00:45:32;;;;;;;;;;;;;;;;;;5018212;28;19975;-29
2022/04/18 00:47:58;;;;;;;;;;;;;;;;;;5017898;28;20012;-29
2022/04/18 00:50:24;;;;;;;;;;;;;;;;;;5017798;28;19939;-31
2022/04/18 00:52:50;;;;;;;;;;;;;;;;;;5017803;28;19909;-32
2022/04/18 00:55:16;;;;;;;;;;;;;;;;;;5018049;28;19913;-29
2022/04/18 00:57:42;;;;;;;;;;;;;;;;;;5017657;28;20347;-28
2022/04/18 01:00:08;;;;;;;;;;;;;;;;;;5017732;28;19913;-30
2022/04/18 01:02:34;;;;;;;;;;;;;;;;;;5017887;28;19921;-27
2022/04/18 01:05:00;;;;;;;;;;;;;;;;;;5017609;28;19917;-31
2022/04/18 01:07:26;;;;;;;;;;;;;;;;;;5017462;28;19909;-29
2022/04/18 01:09:52;;;;;;;;;;;;;;;;;;5000216;28;20337;-29
2022/04/18 01:12:18;;;;;;;;;;;;;;;;;;5017756;28;19913;-31
2022/04/18 01:14:44;;;;;;;;;;;;;;;;;;5017432;28;20000;-27
2022/04/18 01:17:10;;;;;;;;;;;;;;;;;;5017330;28;19976;-31
2022/04/18 01:19:36;;;;;;;;;;;;;;;;;;5017670;28;20047;-34
2022/04/18 01:22:02;;;;;;;;;;;;;;;;;;4999952;28;19939;-29
2022/04/18 01:29:57;;;;;;;;;;;;;;;;;;5017373;28;19939;-32
2022/04/18 01:32:23;;;;;;;;;;;;;;;;;;5017188;28;19918;-29
2022/04/18 01:34:49;;;;;;;;;;;;;;;;;;5017402;28;19913;-29
2022/04/18 01:37:15;;;;;;;;;;;;;;;;;;5017859;28;19921;-26
2022/04/18 01:39:41;;;;;;;;;;;;;;;;;;5017272;28;19991;-30
2022/04/18 01:42:07;;;;;;;;;;;;;;;;;;5017140;28;20320;-31
2022/04/18 01:44:34;;;;;;;;;;;;;;;;;;5016958;28;19918;-25
2022/04/18 01:47:00;;;;;;;;;;;;;;;;;;5016772;28;19913;-28
2022/04/18 01:49:26;;;;;;;;;;;;;;;;;;5016844;28;19909;-28
2022/04/18 01:51:52;;;;;;;;;;;;;;;;;;5017008;28;20278;-31
2022/04/18 01:54:18;;;;;;;;;;;;;;;;;;5017008;28;20253;-28
2022/04/18 01:56:45;;;;;;;;;;;;;;;;;;5016669;28;19925;-27
2022/04/18 01:59:11;;;;;;;;;;;;;;;;;;5016568;28;19914;-31
2022/04/18 02:01:37;;;;;;;;;;;;;;;;;;5016492;28;19913;-28
2022/04/18 02:04:03;;;;;;;;;;;;;;;;;;5016647;28;19960;-28
2022/04/18 02:06:29;;;;;;;;;;;;;;;;;;5016748;28;19913;-31
2022/04/18 02:08:55;;;;;;;;;;;;;;;;;;5016447;28;19909;-32
2022/04/18 02:11:21;;;;;;;;;;;;;;;;;;5016650;28;19918;-29
2022/04/18 02:13:47;;;;;;;;;;;;;;;;;;5016379;28;19909;-30
2022/04/18 02:16:13;;;;;;;;;;;;;;;;;;5016304;28;19975;-30
2022/04/18 02:18:39;;;;;;;;;;;;;;;;;;5016230;28;20036;-30
2022/04/18 02:21:05;;;;;;;;;;;;;;;;;;5016208;28;19932;-30
2022/04/18 02:23:31;;;;;;;;;;;;;;;;;;5015931;28;19933;-25
2022/04/18 02:25:57;;;;;;;;;;;;;;;;;;4998844;28;20376;-32
2022/04/18 02:28:23;;;;;;;;;;;;;;;;;;5016042;28;19909;-30
2022/04/18 02:30:49;;;;;;;;;;;;;;;;;;4998616;28;19913;-26
2022/04/18 02:33:15;;;;;;;;;;;;;;;;;;5016058;28;19937;-28
2022/04/18 02:35:41;;;;;;;;;;;;;;;;;;5015882;28;19925;-31
2022/04/18 02:38:07;;;;;;;;;;;;;;;;;;5015856;28;19909;-27
2022/04/18 02:40:33;;;;;;;;;;;;;;;;;;5015677;28;19921;-26
2022/04/18 02:42:59;;;;;;;;;;;;;;;;;;5016090;28;19917;-27
2022/04/18 02:45:27;;;;;;;;;;;;;;;;;;5016081;28;19917;-28
2022/04/18 02:47:53;;;;;;;;;;;;;;;;;;5015995;28;19909;-27
2022/04/18 02:50:19;;;;;;;;;;;;;;;;;;5015987;28;19913;-28
2022/04/18 02:52:45;;;;;;;;;;;;;;;;;;5015904;28;19979;-30
2022/04/18 02:55:11;;;;;;;;;;;;;;;;;;5015583;28;19917;-29
2022/04/18 02:57:37;;;;;;;;;;;;;;;;;;5015705;28;19936;-30
2022/04/18 03:00:03;;;;;;;;;;;;;;;;;;5015444;28;19991;-26
2022/04/18 03:02:29;;;;;;;;;;;;;;;;;;5015362;28;20248;-25
2022/04/18 03:04:56;;;;;;;;;;;;;;;;;;5015382;28;20008;-30
2022/04/18 03:07:22;;;;;;;;;;;;;;;;;;5015444;28;19909;-27
2022/04/18 03:09:48;;;;;;;;;;;;;;;;;;4997964;28;20353;-28
2022/04/18 03:12:14;;;;;;;;;;;;;;;;;;5015222;28;19996;-31
2022/04/18 03:14:40;;;;;;;;;;;;;;;;;;5015203;28;20272;-28
2022/04/18 03:17:06;;;;;;;;;;;;;;;;;;5015369;28;19916;-26
2022/04/18 03:19:32;;;;;;;;;;;;;;;;;;4997923;28;20323;-30
2022/04/18 03:21:59;;;;;;;;;;;;;;;;;;4997812;28;19925;-31
2022/04/18 03:24:25;;;;;;;;;;;;;;;;;;5014064;28;19928;-26
2022/04/18 03:26:51;;;;;;;;;;;;;;;;;;5007716;28;19921;-28
2022/04/18 03:29:17;;;;;;;;;;;;;;;;;;5015183;28;19914;-24
2022/04/18 03:31:43;;;;;;;;;;;;;;;;;;5014917;28;19956;-31
2022/04/18 03:34:09;;;;;;;;;;;;;;;;;;5015262;28;19919;-28
2022/04/18 03:42:04;;;;;;;;;;;;;;;;;;5015074;28;19979;-24
2022/04/18 03:44:30;;;;;;;;;;;;;;;;;;5014854;28;20087;-28
2022/04/18 03:46:57;;;;;;;;;;;;;;;;;;5014989;28;19909;-30
2022/04/18 03:49:24;;;;;;;;;;;;;;;;;;5014728;28;19968;-34
2022/04/18 03:51:50;;;;;;;;;;;;;;;;;;5019863;28;19917;-29
2022/04/18 03:54:16;;;;;;;;;;;;;;;;;;5021518;28;19940;-28
2022/04/18 03:56:42;;;;;;;;;;;;;;;;;;5021533;28;20337;-27
2022/04/18 03:59:08;;;;;;;;;;;;;;;;;;5021263;28;19921;-26
2022/04/18 04:04:09;;;;;;;;;;;;;;;;;;4066575;26;20015;-26
2022/04/18 04:06:35;;;;;;;;;;;;;;;;;;5040964;28;19971;-25
2022/04/18 04:09:01;;;;;;;;;;;;;;;;;;5041335;28;19913;-26
2022/04/18 04:11:27;;;;;;;;;;;;;;;;;;5040966;28;20267;-25
2022/04/18 04:13:54;;;;;;;;;;;;;;;;;;5041164;28;19913;-26
2022/04/18 04:16:20;;;;;;;;;;;;;;;;;;5040895;28;19920;-26
2022/04/18 04:18:46;;;;;;;;;;;;;;;;;;5041190;28;19909;-25
2022/04/18 04:21:12;;;;;;;;;;;;;;;;;;5040879;28;19912;-26
2022/04/18 04:23:38;;;;;;;;;;;;;;;;;;5040713;28;20004;-25
2022/04/18 04:26:04;;;;;;;;;;;;;;;;;;5023351;28;19913;-26
2022/04/18 04:28:30;;;;;;;;;;;;;;;;;;5041071;28;20430;-26
2022/04/18 04:30:56;;;;;;;;;;;;;;;;;;5040788;28;20000;-25
2022/04/18 04:33:22;;;;;;;;;;;;;;;;;;5040983;28;19940;-25
2022/04/18 04:35:48;;;;;;;;;;;;;;;;;;5040716;28;19963;-25
2022/04/18 04:38:14;;;;;;;;;;;;;;;;;;5040693;28;19919;-26
2022/04/18 04:40:40;;;;;;;;;;;;;;;;;;5040664;28;20410;-26
2022/04/18 04:43:07;;;;;;;;;;;;;;;;;;5040810;28;20296;-26
2022/04/18 04:45:33;;;;;;;;;;;;;;;;;;5040929;28;19948;-26
2022/04/18 04:47:59;;;;;;;;;;;;;;;;;;5040704;28;19956;-25
2022/04/18 04:50:25;;;;;;;;;;;;;;;;;;5041300;28;19920;-25
2022/04/18 04:52:51;;;;;;;;;;;;;;;;;;5040825;28;19909;-26
2022/04/18 04:55:17;;;;;;;;;;;;;;;;;;5040577;28;19924;-26
2022/04/18 04:57:44;;;;;;;;;;;;;;;;;;5040544;28;19921;-25
2022/04/18 05:00:10;;;;;;;;;;;;;;;;;;5023053;28;20351;-26
2022/04/18 05:02:36;;;;;;;;;;;;;;;;;;5038676;28;20010;-26
2022/04/18 05:05:02;;;;;;;;;;;;;;;;;;5037893;28;19913;-25
2022/04/18 05:07:29;;;;;;;;;;;;;;;;;;5037277;28;20224;-25
2022/04/18 05:09:55;;;;;;;;;;;;;;;;;;5037313;28;20352;-26
2022/04/18 05:12:21;;;;;;;;;;;;;;;;;;5037459;28;19932;-25
2022/04/18 05:14:47;;;;;;;;;;;;;;;;;;5037194;28;20367;-26
2022/04/18 05:17:13;;;;;;;;;;;;;;;;;;5037388;28;19924;-26
2022/04/18 05:19:39;;;;;;;;;;;;;;;;;;5037105;28;19948;-26
2022/04/18 05:22:05;;;;;;;;;;;;;;;;;;5036953;28;19953;-26
2022/04/18 05:24:31;;;;;;;;;;;;;;;;;;5037085;28;19924;-25
2022/04/18 05:26:57;;;;;;;;;;;;;;;;;;5036969;28;20289;-25
2022/04/18 05:29:23;;;;;;;;;;;;;;;;;;5037050;28;19913;-25
2022/04/18 05:31:49;;;;;;;;;;;;;;;;;;5037086;28;20229;-26
2022/04/18 05:34:15;;;;;;;;;;;;;;;;;;5036903;28;19916;-26
2022/04/18 05:36:41;;;;;;;;;;;;;;;;;;5036756;28;19914;-25
2022/04/18 05:39:07;;;;;;;;;;;;;;;;;;5036802;28;19909;-26
2022/04/18 05:41:33;;;;;;;;;;;;;;;;;;5036606;28;19917;-25
2022/04/18 05:43:59;;;;;;;;;;;;;;;;;;5036945;28;19994;-26
2022/04/18 05:46:27;;;;;;;;;;;;;;;;;;5019105;28;19913;-26
2022/04/18 05:48:54;;;;;;;;;;;;;;;;;;5036834;28;19948;-25
2022/04/18 05:51:20;;;;;;;;;;;;;;;;;;5036694;28;20272;-26
2022/04/18 05:53:46;;;;;;;;;;;;;;;;;;5036440;28;19925;-26
2022/04/18 05:56:12;;;;;;;;;;;;;;;;;;5036411;28;19921;-26
2022/04/18 05:58:40;;;;;;;;;;;;;;;;;;5036667;28;20007;-26
2022/04/18 06:01:07;;;;;;;;;;;;;;;;;;5018793;28;19971;-25
2022/04/18 06:03:33;;;;;;;;;;;;;;;;;;5036010;28;20039;-26
2022/04/18 06:05:59;;;;;;;;;;;;;;;;;;5036339;28;19910;-25
2022/04/18 06:08:25;;;;;;;;;;;;;;;;;;5036281;28;19936;-25
2022/04/18 06:10:51;;;;;;;;;;;;;;;;;;5036256;28;19913;-26
2022/04/18 06:13:17;;;;;;;;;;;;;;;;;;5035749;28;19986;-26
2022/04/18 06:15:43;;;;;;;;;;;;;;;;;;5035896;28;20011;-25
2022/04/18 06:18:09;;;;;;;;;;;;;;;;;;5035929;28;20398;-25
2022/04/18 06:20:35;;;;;;;;;;;;;;;;;;5036169;28;19994;-26
2022/04/18 06:23:01;;;;;;;;;;;;;;;;;;5035824;28;20259;-25
2022/04/18 06:25:28;;;;;;;;;;;;;;;;;;5018371;28;19966;-25
2022/04/18 06:27:54;;;;;;;;;;;;;;;;;;5035793;28;20007;-25
2022/04/18 06:30:20;;;;;;;;;;;;;;;;;;5035720;28;19913;-26
2022/04/18 06:32:46;;;;;;;;;;;;;;;;;;5035805;28;19909;-25
2022/04/18 06:35:12;;;;;;;;;;;;;;;;;;5035914;28;19945;-26
2022/04/18 06:37:38;;;;;;;;;;;;;;;;;;5036399;28;19910;-26
2022/04/18 06:40:04;;;;;;;;;;;;;;;;;;5035579;28;19999;-26
2022/04/18 06:42:30;;;;;;;;;;;;;;;;;;5035458;28;20032;-25
2022/04/18 06:44:56;;;;;;;;;;;;;;;;;;5035812;28;19913;-25
2022/04/18 06:47:22;;;;;;;;;;;;;;;;;;5035382;28;19909;-26
2022/04/18 06:49:48;;;;;;;;;;;;;;;;;;5035459;28;19921;-25
2022/04/18 06:52:14;;;;;;;;;;;;;;;;;;5035548;28;19909;-25
2022/04/18 06:54:40;;;;;;;;;;;;;;;;;;5036037;28;19913;-26
2022/04/18 06:57:07;;;;;;;;;;;;;;;;;;5035298;28;19909;-26
2022/04/18 06:59:33;;;;;;;;;;;;;;;;;;5017810;28;19975;-26
2022/04/18 07:01:59;;;;;;;;;;;;;;;;;;5035038;28;19948;-25
2022/04/18 07:04:25;;;;;;;;;;;;;;;;;;5017579;28;19947;-25
2022/04/18 07:06:51;;;;;;;;;;;;;;;;;;5035070;28;20419;-26
2022/04/18 07:09:17;;;;;;;;;;;;;;;;;;5035342;28;19956;-25
2022/04/18 07:11:45;;;;;;;;;;;;;;;;;;5034925;28;19928;-26
2022/04/18 07:14:11;;;;;;;;;;;;;;;;;;5034991;28;19924;-26
2022/04/18 07:16:37;;;;;;;;;;;;;;;;;;5034940;28;20256;-26
2022/04/18 07:19:03;;;;;;;;;;;;;;;;;;5017597;28;19943;-26
2022/04/18 07:21:29;;;;;;;;;;;;;;;;;;5017416;28;19924;-26
2022/04/18 07:23:55;;;;;;;;;;;;;;;;;;5034709;28;19913;-26
2022/04/18 07:26:21;;;;;;;;;;;;;;;;;;5034271;28;19924;-26
2022/04/18 07:28:47;;;;;;;;;;;;;;;;;;5034808;28;20344;-25
2022/04/18 07:31:13;;;;;;;;;;;;;;;;;;5034927;28;20383;-25
2022/04/18 07:33:39;;;;;;;;;;;;;;;;;;5034706;28;19987;-26
2022/04/18 07:36:05;;;;;;;;;;;;;;;;;;5017687;28;20379;-25
2022/04/18 07:38:49;;;;;;;;;;;;;;;;;;5034721;28;19909;-26
2022/04/18 07:41:15;;;;;;;;;;;;;;;;;;5034866;28;19923;-25
2022/04/18 07:43:41;;;;;;;;;;;;;;;;;;5034784;28;19991;-26
2022/04/18 07:46:07;;;;;;;;;;;;;;;;;;5034784;28;19913;-26
2022/04/18 07:48:33;;;;;;;;;;;;;;;;;;5034627;28;20004;-26
2022/04/18 07:53:43;;;;;;;;;;;;;;;;;;5034503;28;19923;-26
2022/04/18 07:56:09;;;;;;;;;;;;;;;;;;5034436;28;19913;-25
2022/04/18 07:58:35;;;;;;;;;;;;;;;;;;5034472;28;20023;-25
2022/04/18 08:01:01;;;;;;;;;;;;;;;;;;5034726;28;19924;-26
2022/04/18 08:03:27;;;;;;;;;;;;;;;;;;5034210;28;19932;-26
2022/04/18 08:05:53;;;;;;;;;;;;;;;;;;5034657;28;19914;-25
2022/04/18 08:08:19;;;;;;;;;;;;;;;;;;5034632;28;20225;-26
2022/04/18 08:10:45;;;;;;;;;;;;;;;;;;5034267;28;19913;-25
2022/04/18 08:13:11;;;;;;;;;;;;;;;;;;5034189;28;19909;-26
2022/04/18 08:15:37;;;;;;;;;;;;;;;;;;5034373;28;20348;-26
2022/04/18 08:18:03;;;;;;;;;;;;;;;;;;5034512;28;19928;-26
2022/04/18 08:20:29;;;;;;;;;;;;;;;;;;5016768;28;19909;-25
2022/04/18 08:22:55;;;;;;;;;;;;;;;;;;5034220;28;19913;-26
2022/04/18 08:25:21;;;;;;;;;;;;;;;;;;5034214;28;20255;-25
2022/04/18 08:27:47;;;;;;;;;;;;;;;;;;5034210;28;19916;-25
2022/04/18 08:30:13;;;;;;;;;;;;;;;;;;5034433;28;19940;-25
2022/04/18 08:32:39;;;;;;;;;;;;;;;;;;5034059;28;19909;-25
2022/04/18 08:35:05;;;;;;;;;;;;;;;;;;5034110;28;20356;-25
2022/04/18 08:37:33;;;;;;;;;;;;;;;;;;5018380;28;20032;-25
2022/04/18 08:39:59;;;;;;;;;;;;;;;;;;5037824;28;19913;-25
2022/04/18 08:42:25;;;;;;;;;;;;;;;;;;5037693;28;19920;-25
2022/04/18 08:44:51;;;;;;;;;;;;;;;;;;5037801;28;19920;-25
2022/04/18 08:52:46;;;;;;;;;;;;;;;;;;5037785;28;19924;-25
2022/04/18 08:55:13;;;;;;;;;;;;;;;;;;5037893;28;19931;-25
2022/04/18 08:57:39;;;;;;;;;;;;;;;;;;5037574;28;20399;-25
2022/04/18 09:00:06;;;;;;;;;;;;;;;;;;5037483;28;19917;-25
2022/04/18 09:02:32;;;;;;;;;;;;;;;;;;5037078;28;19913;-25
2022/04/18 09:04:58;;;;;;;;;;;;;;;;;;5037337;28;19917;-25
2022/04/18 09:07:25;;;;;;;;;;;;;;;;;;5037273;28;20335;-25
2022/04/18 09:09:54;;;;;;;;;;;;;;;;;;5019777;28;19913;-25
2022/04/18 09:12:20;;;;;;;;;;;;;;;;;;5037478;28;19916;-25
2022/04/18 09:14:48;;;;;;;;;;;;;;;;;;5037216;28;20367;-25
2022/04/18 09:17:14;;;;;;;;;;;;;;;;;;5019699;28;19920;-25
2022/04/18 09:19:40;;;;;;;;;;;;;;;;;;5037119;28;20255;-25
2022/04/18 09:22:07;;;;;;;;;;;;;;;;;;5036918;28;20004;-25
2022/04/18 09:24:34;;;;;;;;;;;;;;;;;;5037632;28;20002;-25
2022/04/18 09:27:00;;;;;;;;;;;;;;;;;;5037033;28;19913;-25
2022/04/18 09:29:26;;;;;;;;;;;;;;;;;;5036963;28;19955;-25
2022/04/18 09:31:52;;;;;;;;;;;;;;;;;;5019448;28;19917;-25
2022/04/18 09:34:20;;;;;;;;;;;;;;;;;;5037147;28;20063;-25
2022/04/18 09:36:46;;;;;;;;;;;;;;;;;;5036896;28;19923;-25
2022/04/18 09:39:12;;;;;;;;;;;;;;;;;;5036899;28;19909;-25
2022/04/18 09:41:38;;;;;;;;;;;;;;;;;;5036761;28;19921;-25
2022/04/18 09:44:04;;;;;;;;;;;;;;;;;;5036621;28;19928;-25
2022/04/18 09:46:30;;;;;;;;;;;;;;;;;;5036616;28;20344;-25
2022/04/18 09:48:56;;;;;;;;;;;;;;;;;;5035977;28;19913;-25
2022/04/18 09:51:22;;;;;;;;;;;;;;;;;;5036484;28;19913;-25
2022/04/18 09:53:48;;;;;;;;;;;;;;;;;;5036475;28;19936;-25
2022/04/18 09:56:14;;;;;;;;;;;;;;;;;;5036423;28;19959;-25
2022/04/18 09:58:40;;;;;;;;;;;;;;;;;;5036739;28;19909;-25
2022/04/18 10:01:06;;;;;;;;;;;;;;;;;;5036395;28;20316;-25
2022/04/18 10:03:32;;;;;;;;;;;;;;;;;;5036154;28;19994;-25
2022/04/18 10:05:58;;;;;;;;;;;;;;;;;;5036282;28;19948;-25
2022/04/18 10:08:24;;;;;;;;;;;;;;;;;;5036504;28;19917;-25
2022/04/18 10:10:50;;;;;;;;;;;;;;;;;;5036249;28;19936;-25
2022/04/18 10:13:16;;;;;;;;;;;;;;;;;;5036099;28;19913;-25
2022/04/18 10:15:42;;;;;;;;;;;;;;;;;;5036145;28;19913;-25
2022/04/18 10:18:09;;;;;;;;;;;;;;;;;;5036058;28;19916;-25
2022/04/18 10:20:35;;;;;;;;;;;;;;;;;;5035952;28;20343;-25
2022/04/18 10:23:01;;;;;;;;;;;;;;;;;;5035888;28;20407;-25
2022/04/18 10:25:27;;;;;;;;;;;;;;;;;;5035849;28;20023;-25
2022/04/18 10:27:53;;;;;;;;;;;;;;;;;;5036149;28;19909;-25
2022/04/18 10:30:19;;;;;;;;;;;;;;;;;;5035814;28;19913;-25
2022/04/18 10:32:45;;;;;;;;;;;;;;;;;;5036041;28;19968;-25
2022/04/18 10:35:11;;;;;;;;;;;;;;;;;;5035859;28;20309;-25
2022/04/18 10:37:37;;;;;;;;;;;;;;;;;;5036327;28;19920;-25
2022/04/18 10:40:03;;;;;;;;;;;;;;;;;;5035752;28;19928;-25
2022/04/18 10:42:29;;;;;;;;;;;;;;;;;;5035803;28;20360;-25
2022/04/18 10:44:55;;;;;;;;;;;;;;;;;;5035890;28;19924;-25
2022/04/18 10:47:21;;;;;;;;;;;;;;;;;;5035640;28;19913;-25
2022/04/18 10:49:47;;;;;;;;;;;;;;;;;;5035567;28;20324;-25
2022/04/18 10:52:13;;;;;;;;;;;;;;;;;;5035449;28;19913;-25
2022/04/18 10:54:39;;;;;;;;;;;;;;;;;;5035693;28;20398;-25
2022/04/18 10:57:07;;;;;;;;;;;;;;;;;;5035412;28;19909;-25
2022/04/18 10:59:33;;;;;;;;;;;;;;;;;;5035539;28;19995;-25
2022/04/18 11:01:59;;;;;;;;;;;;;;;;;;5035169;28;19948;-25
2022/04/18 11:04:25;;;;;;;;;;;;;;;;;;5035133;28;19972;-25
2022/04/18 11:06:52;;;;;;;;;;;;;;;;;;5035532;28;19909;-25
2022/04/18 11:09:19;;;;;;;;;;;;;;;;;;5017757;28;19913;-25
2022/04/18 11:11:45;;;;;;;;;;;;;;;;;;5035145;28;19913;-25
2022/04/18 11:14:11;;;;;;;;;;;;;;;;;;5035378;28;19909;-25
2022/04/18 11:16:37;;;;;;;;;;;;;;;;;;5035056;28;19913;-25
2022/04/18 11:19:03;;;;;;;;;;;;;;;;;;5035088;28;19916;-25
2022/04/18 11:21:29;;;;;;;;;;;;;;;;;;5035263;28;20003;-25
2022/04/18 11:23:55;;;;;;;;;;;;;;;;;;5034875;28;19960;-25
2022/04/18 11:26:21;;;;;;;;;;;;;;;;;;5034954;28;19924;-26
2022/04/18 11:28:47;;;;;;;;;;;;;;;;;;5034947;28;19920;-25
2022/04/18 11:31:13;;;;;;;;;;;;;;;;;;5034936;28;19944;-25
2022/04/18 11:33:39;;;;;;;;;;;;;;;;;;5034925;28;19948;-25
2022/04/18 11:36:05;;;;;;;;;;;;;;;;;;5035080;28;20381;-25
2022/04/18 11:38:31;;;;;;;;;;;;;;;;;;5034787;28;20000;-25
2022/04/18 11:40:57;;;;;;;;;;;;;;;;;;5034779;28;20290;-25
2022/04/18 11:43:23;;;;;;;;;;;;;;;;;;5034680;28;20016;-25
2022/04/18 11:45:49;;;;;;;;;;;;;;;;;;5034694;28;19923;-25
2022/04/18 11:48:15;;;;;;;;;;;;;;;;;;5034736;28;19920;-25
2022/04/18 11:50:42;;;;;;;;;;;;;;;;;;5035306;28;19967;-25
2022/04/18 11:53:09;;;;;;;;;;;;;;;;;;5034724;28;19917;-25
2022/04/18 11:55:35;;;;;;;;;;;;;;;;;;5034613;28;19913;-25
2022/04/18 11:58:01;;;;;;;;;;;;;;;;;;5034586;28;19963;-25
2022/04/18 12:08:40;;;;;;;;;;;;;;;;;;5034603;28;19916;-25
2022/04/18 12:11:06;;;;;;;;;;;;;;;;;;5034414;28;19913;-25
2022/04/18 12:13:32;;;;;;;;;;;;;;;;;;5038222;28;19932;-25
2022/04/18 12:15:58;;;;;;;;;;;;;;;;;;5038429;28;19929;-25
2022/04/18 12:18:24;;;;;;;;;;;;;;;;;;5038429;28;19917;-25
2022/04/18 12:20:50;;;;;;;;;;;;;;;;;;5038622;28;19952;-25
2022/04/18 12:23:17;;;;;;;;;;;;;;;;;;5038245;28;19920;-25
2022/04/18 12:25:42;;;;;;;;;;;;;;;;;;5038572;28;19923;-25
2022/04/18 12:28:08;;;;;;;;;;;;;;;;;;5038219;28;19909;-25
2022/04/18 12:30:34;;;;;;;;;;;;;;;;;;5038176;28;19920;-25
2022/04/18 12:33:00;;;;;;;;;;;;;;;;;;5038372;28;19988;-25
2022/04/18 12:35:26;;;;;;;;;;;;;;;;;;5038259;28;19913;-25
2022/04/18 12:37:52;;;;;;;;;;;;;;;;;;5038249;28;19917;-25
2022/04/18 12:40:19;;;;;;;;;;;;;;;;;;5038243;28;20232;-25
2022/04/18 12:42:45;;;;;;;;;;;;;;;;;;5037807;28;19913;-25
2022/04/18 12:45:11;;;;;;;;;;;;;;;;;;5037881;28;19920;-25
2022/04/18 12:47:37;;;;;;;;;;;;;;;;;;5037890;28;19909;-25
2022/04/18 12:50:03;;;;;;;;;;;;;;;;;;5038069;28;19917;-26
2022/04/18 12:52:29;;;;;;;;;;;;;;;;;;5020230;28;19909;-25
2022/04/18 12:54:55;;;;;;;;;;;;;;;;;;5037755;28;19924;-25
2022/04/18 12:57:21;;;;;;;;;;;;;;;;;;5037709;28;19997;-25
2022/04/18 12:59:48;;;;;;;;;;;;;;;;;;5037686;28;19921;-25
2022/04/18 13:02:14;;;;;;;;;;;;;;;;;;5037651;28;19921;-25
2022/04/18 13:04:40;;;;;;;;;;;;;;;;;;5019929;28;20237;-25
2022/04/18 13:07:06;;;;;;;;;;;;;;;;;;5037493;28;20091;-25
2022/04/18 13:09:32;;;;;;;;;;;;;;;;;;5037837;28;19909;-25
2022/04/18 13:11:58;;;;;;;;;;;;;;;;;;5037433;28;20407;-25
2022/04/18 13:14:24;;;;;;;;;;;;;;;;;;5037189;28;19964;-25
2022/04/18 13:16:50;;;;;;;;;;;;;;;;;;5037200;28;19909;-25
2022/04/18 13:19:17;;;;;;;;;;;;;;;;;;5037163;28;20003;-25
2022/04/18 13:21:43;;;;;;;;;;;;;;;;;;5019593;28;19956;-25
2022/04/18 13:24:09;;;;;;;;;;;;;;;;;;5018247;28;19961;-25
2022/04/18 13:26:35;;;;;;;;;;;;;;;;;;5037049;28;19952;-25
2022/04/18 13:29:01;;;;;;;;;;;;;;;;;;5036975;28;19935;-25
2022/04/18 13:31:27;;;;;;;;;;;;;;;;;;5019469;28;19913;-25
2022/04/18 13:33:53;;;;;;;;;;;;;;;;;;5036976;28;19920;-25
2022/04/18 13:36:36;;;;;;;;;;;;;;;;;;5036811;28;20052;-25
2022/04/18 13:39:02;;;;;;;;;;;;;;;;;;5019492;28;19963;-25
2022/04/18 13:41:28;;;;;;;;;;;;;;;;;;5036759;28;19913;-25
2022/04/18 13:43:54;;;;;;;;;;;;;;;;;;5036898;28;19924;-25
2022/04/18 13:46:20;;;;;;;;;;;;;;;;;;5036690;28;19913;-25
2022/04/18 13:48:50;;;;;;;;;;;;;;;;;;5036662;28;19983;-25
2022/04/18 13:51:16;;;;;;;;;;;;;;;;;;5036477;28;19913;-25
2022/04/18 13:53:42;;;;;;;;;;;;;;;;;;5036455;28;19909;-25
2022/04/18 13:56:08;;;;;;;;;;;;;;;;;;5036474;28;19917;-25
2022/04/18 13:58:34;;;;;;;;;;;;;;;;;;5036721;28;19917;-25
2022/04/18 14:01:00;;;;;;;;;;;;;;;;;;5018929;28;19923;-25
2022/04/18 14:03:26;;;;;;;;;;;;;;;;;;5035991;28;20318;-25
2022/04/18 14:05:52;;;;;;;;;;;;;;;;;;5036324;28;20004;-25
2022/04/18 14:08:18;;;;;;;;;;;;;;;;;;5036204;28;20006;-26
2022/04/18 14:10:44;;;;;;;;;;;;;;;;;;5036244;28;19912;-25
2022/04/18 14:13:10;;;;;;;;;;;;;;;;;;5036287;28;19966;-25
2022/04/18 14:21:05;;;;;;;;;;;;;;;;;;5036174;28;19920;-25
2022/04/18 14:23:31;;;;;;;;;;;;;;;;;;5035864;28;19912;-25
2022/04/18 14:25:57;;;;;;;;;;;;;;;;;;5035995;28;19913;-25
2022/04/18 14:28:23;;;;;;;;;;;;;;;;;;5035995;28;20366;-25
2022/04/18 14:30:49;;;;;;;;;;;;;;;;;;5036251;28;20232;-25
2022/04/18 14:33:15;;;;;;;;;;;;;;;;;;5035852;28;19909;-26
2022/04/18 14:35:41;;;;;;;;;;;;;;;;;;5035448;28;19967;-25
2022/04/18 14:38:09;;;;;;;;;;;;;;;;;;5035797;28;19913;-25
2022/04/18 14:40:35;;;;;;;;;;;;;;;;;;5018237;28;19913;-25
2022/04/18 14:43:01;;;;;;;;;;;;;;;;;;5035855;28;20328;-25
2022/04/18 14:45:27;;;;;;;;;;;;;;;;;;5035603;28;19913;-25
2022/04/18 14:47:53;;;;;;;;;;;;;;;;;;5035862;28;20261;-25
2022/04/18 14:50:20;;;;;;;;;;;;;;;;;;5035565;28;19913;-25
2022/04/18 14:52:46;;;;;;;;;;;;;;;;;;5035744;28;19976;-25
2022/04/18 14:55:12;;;;;;;;;;;;;;;;;;5035452;28;20368;-25
2022/04/18 14:57:38;;;;;;;;;;;;;;;;;;5018028;28;20228;-25
2022/04/18 15:00:04;;;;;;;;;;;;;;;;;;5035630;28;19925;-26
2022/04/18 15:02:30;;;;;;;;;;;;;;;;;;5035006;28;19913;-30
2022/04/18 15:04:56;;;;;;;;;;;;;;;;;;5035644;28;19928;-26
2022/04/18 15:07:22;;;;;;;;;;;;;;;;;;5035315;28;20265;-26
2022/04/18 15:09:48;;;;;;;;;;;;;;;;;;5035276;28;19913;-26
2022/04/18 15:12:14;;;;;;;;;;;;;;;;;;5035101;28;19913;-26
2022/04/18 15:14:40;;;;;;;;;;;;;;;;;;5035178;28;19916;-25
2022/04/18 15:17:06;;;;;;;;;;;;;;;;;;5035040;28;19913;-26
2022/04/18 15:19:32;;;;;;;;;;;;;;;;;;5035277;28;19916;-25
2022/04/18 15:21:58;;;;;;;;;;;;;;;;;;5034849;28;19988;-25
2022/04/18 15:24:24;;;;;;;;;;;;;;;;;;5035132;28;19998;-26
2022/04/18 15:26:51;;;;;;;;;;;;;;;;;;5034784;28;19924;-26
2022/04/18 15:29:17;;;;;;;;;;;;;;;;;;5034823;28;20382;-25
2022/04/18 15:34:28;;;;;;;;;;;;;;;;;;5034932;28;20294;-26
2022/04/18 15:36:54;;;;;;;;;;;;;;;;;;5017227;28;20352;-25
2022/04/18 15:39:20;;;;;;;;;;;;;;;;;;5035054;28;19913;-26
2022/04/18 15:41:46;;;;;;;;;;;;;;;;;;5034606;28;19913;-26
2022/04/18 15:44:12;;;;;;;;;;;;;;;;;;5034832;28;19920;-25
2022/04/18 15:46:39;;;;;;;;;;;;;;;;;;5033895;28;19913;-25
2022/04/18 15:49:05;;;;;;;;;;;;;;;;;;5034915;28;19936;-25
2022/04/18 15:51:31;;;;;;;;;;;;;;;;;;5034496;28;19924;-25
2022/04/18 15:53:57;;;;;;;;;;;;;;;;;;5034476;28;19912;-25
2022/04/18 15:56:23;;;;;;;;;;;;;;;;;;5017093;28;19983;-25
2022/04/18 15:58:49;;;;;;;;;;;;;;;;;;5034522;28;20252;-25
2022/04/18 16:01:15;;;;;;;;;;;;;;;;;;5034727;28;19913;-25
2022/04/18 16:03:42;;;;;;;;;;;;;;;;;;5034106;28;19921;-25
2022/04/18 16:06:08;;;;;;;;;;;;;;;;;;5034438;28;20351;-25
2022/04/18 16:08:34;;;;;;;;;;;;;;;;;;5016995;28;19924;-25
2022/04/18 16:11:00;;;;;;;;;;;;;;;;;;5034637;28;19913;-25
2022/04/18 16:13:26;;;;;;;;;;;;;;;;;;5034934;28;19967;-25
2022/04/18 16:15:52;;;;;;;;;;;;;;;;;;5034367;28;19917;-25
2022/04/18 16:18:18;;;;;;;;;;;;;;;;;;5016986;28;19909;-25
2022/04/18 16:20:44;;;;;;;;;;;;;;;;;;5016932;28;19928;-25
2022/04/18 16:23:10;;;;;;;;;;;;;;;;;;5034281;28;20027;-25
2022/04/18 16:25:36;;;;;;;;;;;;;;;;;;5034330;28;19936;-25
2022/04/18 16:28:02;;;;;;;;;;;;;;;;;;5034639;28;19916;-25
2022/04/18 16:33:13;;;;;;;;;;;;;;;;;;5034315;28;19923;-25
2022/04/18 16:35:39;;;;;;;;;;;;;;;;;;5034501;28;20305;-25
2022/04/18 16:38:05;;;;;;;;;;;;;;;;;;5034535;28;19966;-25
2022/04/18 16:40:31;;;;;;;;;;;;;;;;;;5034185;28;19995;-25
2022/04/18 16:45:48;;;;;;;;;;;;;;;;;;5034432;28;19975;-25
2022/04/18 16:48:14;;;;;;;;;;;;;;;;;;5034223;28;19913;-25
2022/04/18 16:50:40;;;;;;;;;;;;;;;;;;5034105;28;20251;-25
2022/04/18 16:53:06;;;;;;;;;;;;;;;;;;5034126;28;19909;-25
2022/04/18 16:55:32;;;;;;;;;;;;;;;;;;5034038;28;19913;-25
2022/04/18 16:57:58;;;;;;;;;;;;;;;;;;5035150;28;19917;-25
2022/04/18 17:00:24;;;;;;;;;;;;;;;;;;5037825;28;19913;-25
2022/04/18 17:02:50;;;;;;;;;;;;;;;;;;5037295;28;19921;-25
2022/04/18 17:05:16;;;;;;;;;;;;;;;;;;5037551;28;19920;-25
2022/04/18 17:07:43;;;;;;;;;;;;;;;;;;5037803;28;19967;-25
2022/04/18 17:10:09;;;;;;;;;;;;;;;;;;5037779;28;19917;-25
2022/04/18 17:12:35;;;;;;;;;;;;;;;;;;5037361;28;19940;-26
2022/04/18 17:15:01;;;;;;;;;;;;;;;;;;5037979;28;19913;-26
2022/04/18 17:17:27;;;;;;;;;;;;;;;;;;5037304;28;20255;-26
2022/04/18 17:19:53;;;;;;;;;;;;;;;;;;5037547;28;19913;-26
2022/04/18 17:22:19;;;;;;;;;;;;;;;;;;5019648;28;19909;-26